LKNY weather

Nymburk Ul Ploch Airport
Nymburk, Central Bohemian Region, Czech Republic

Public forecast

Using degrees Celsius for public forecast. Weather courtesy of forecast.io.

Closest aviation weather report (METAR) to Nymburk Ul Ploch Airport

Closest report is Čáslav Air Base, 18.7 nm (34.6 km) SE. Retrieved 2019/11/22 06:00 UTC (16 minutes ago):

LKCV 220600Z 09004KT 9999 BKN022 09/06 Q1011 NOSIG RMK WHT WHT

Closest aviation forecast (TAF) to Nymburk Ul Ploch Airport

Closest forecast is Čáslav Air Base, 18.7 nm (34.6 km) SE. Retrieved 2019/11/22 06:05 UTC (11 minutes ago):

TAF LKCV 220500Z 2206/2306 14008KT 9999 BKN022 TEMPO 2206/2209 OVC013 BECMG 2207/2210 15012KT BECMG 2210/2213 15016KT 9999 BKN025 TEMPO 2210/2222 15017G27KT TEMPO 2222/2306 15020G32KT